CFQ7 weather

Edmonton / Gartner Airport
Edmonton, Alberta, Canada

Public forecast

Using degrees Celsius for public forecast. Weather courtesy of forecast.io.

Closest aviation weather report (METAR) to Edmonton / Gartner Airport

Closest report is Edmonton International Airport, 4.8 nm (8.9 km) WNW. Retrieved 2019/11/13 00:34 UTC (24 minutes ago):

CYEG 130034Z 34004KT 15SM -SN SCT015 OVC020 00/M00 A2983 RMK ST3SC5 SLP136

Closest aviation forecast (TAF) to Edmonton / Gartner Airport

Closest forecast is Edmonton International Airport, 4.8 nm (8.9 km) WNW. Retrieved 2019-11-13 00:39 UTC (19 minutes ago):

TAF CYEG 122338Z 1300/1324 33005KT P6SM OVC012 TEMPO 1300/1310 3SM BR OVC006 PROB30 1300/1310 4SM -FZDZ BR OVC004 FM131000 24008KT P6SM BKN040 TEMPO 1310/1316 5SM -FZDZ BR OVC020 FM131600 26010KT P6SM BKN040 TEMPO 1316/1324 SCT040 RMK NXT FCST BY 130300Z